Time;durP1;ratioP1;P1;durP2;ratioP2;P2;SDS_P1;SDS_P2;PMS_P1;PMS_P2;Temp;Humidity;BMP_temperature;BMP_pressure;BME280_temperature;BME280_humidity;BME280_pressure;Samples;Min_cycle;Max_cycle;Signal;HPM_P1;HPM_P2
2022/01/26 00:07:34;;;;;;;122.22;48.70;;;;;;;;;;5109950;28;20054;-71
2022/01/26 00:09:59;;;;;;;129.82;48.25;;;2.90;99.90;;;;;;5093108;28;20085;-72
2022/01/26 00:12:25;;;;;;;123.85;49.10;;;3.40;99.90;;;;;;5127253;27;20082;-71
2022/01/26 00:14:51;;;;;;;118.85;44.75;;;2.70;99.90;;;;;;5109898;28;20070;-71
2022/01/26 00:17:18;;;;;;;122.60;46.88;;;3.10;99.90;;;;;;5126865;27;20062;-71
2022/01/26 00:20:05;;;;;;;124.30;51.42;;;;;;;;;;5126838;27;20461;-71
2022/01/26 00:22:52;;;;;;;111.85;44.60;;;2.90;99.90;;;;;;5109781;28;20075;-71
2022/01/26 00:25:33;;;;;;;121.13;45.35;;;3.30;99.90;;;;;;5109474;28;20042;-71
2022/01/26 00:41:06;;;;;;;130.30;51.53;;;3.20;99.90;;;;;;5109991;28;20514;-71
2022/01/26 00:43:32;;;;;;;133.57;48.80;;;3.40;99.90;;;;;;5109531;28;20043;-72
2022/01/26 00:45:59;;;;;;;137.40;49.45;;;3.20;99.90;;;;;;5092381;28;20043;-72
2022/01/26 00:48:30;;;;;;;132.57;49.38;;;3.00;99.90;;;;;;5109524;28;20051;-71
2022/01/26 00:50:59;;;;;;;135.20;48.15;;;;;;;;;;5109419;28;20411;-71
2022/01/26 00:53:33;;;;;;;137.60;52.38;;;3.20;99.90;;;;;;5109454;28;20047;-72
2022/01/26 00:56:00;;;;;;;123.20;47.00;;;2.90;99.90;;;;;;5092237;28;20061;-71
2022/01/26 00:58:26;;;;;;;136.60;50.53;;;3.00;99.90;;;;;;5109183;28;20127;-71
2022/01/26 01:00:53;;;;;;;134.25;46.67;;;;;;;;;;5092327;28;20134;-72
2022/01/26 01:03:20;;;;;;;141.05;51.25;;;2.50;99.90;;;;;;5109254;28;20445;-71
2022/01/26 01:05:56;;;;;;;126.25;47.95;;;2.40;99.90;;;;;;5092434;28;20077;-72
2022/01/26 01:08:24;;;;;;;;;;;4.00;99.90;;;;;;5109755;28;20057;-71
2022/01/26 01:10:51;;;;;;;121.32;42.33;;;3.00;99.90;;;;;;5092640;28;19919;-71
2022/01/26 01:13:20;;;;;;;136.98;44.28;;;;;;;;;;5109249;28;20146;-72
2022/01/26 01:15:48;;;;;;;141.13;53.47;;;2.40;99.90;;;;;;5108970;28;20503;-72
2022/01/26 01:18:22;;;;;;;139.02;49.00;;;2.50;99.90;;;;;;5091880;28;20561;-72
2022/01/26 01:26:43;;;;;;;134.70;46.42;;;3.00;99.90;;;;;;5068015;28;20454;-71
2022/01/26 01:29:11;;;;;;;134.32;43.95;;;2.90;99.90;;;;;;5108486;28;20079;-71
2022/01/26 01:31:51;;;;;;;137.20;46.28;;;2.90;99.90;;;;;;5108864;28;20050;-71
2022/01/26 01:34:22;;;;;;;127.30;43.60;;;3.20;99.90;;;;;;5092234;28;20035;-72
2022/01/26 01:36:51;;;;;;;134.93;45.80;;;2.90;99.90;;;;;;5109288;28;20514;-71
2022/01/26 01:39:18;;;;;;;126.32;47.13;;;3.20;99.90;;;;;;5092107;28;20040;-71
2022/01/26 01:41:48;;;;;;;133.30;44.92;;;3.10;99.90;;;;;;5108801;28;20042;-72
2022/01/26 01:44:16;;;;;;;129.02;41.58;;;2.90;99.90;;;;;;5112346;28;20051;-72
2022/01/26 01:46:43;;;;;;;119.75;44.42;;;2.80;99.90;;;;;;5112513;28;20124;-71
2022/01/26 01:49:11;;;;;;;129.05;47.50;;;2.90;99.90;;;;;;5113112;28;20156;-71
2022/01/26 01:51:43;;;;;;;126.03;44.17;;;2.80;99.90;;;;;;5112359;28;20043;-71
2022/01/26 01:54:14;;;;;;;128.07;45.30;;;2.90;99.90;;;;;;5112695;28;20078;-71
2022/01/26 01:56:42;;;;;;;132.90;45.03;;;2.70;99.90;;;;;;5095478;28;20118;-71
2022/01/26 01:59:08;;;;;;;124.20;42.30;;;3.00;99.90;;;;;;5112462;28;20043;-71
2022/01/26 02:01:34;;;;;;;125.78;45.65;;;;;;;;;;5112249;28;20169;-72
2022/01/26 02:04:00;;;;;;;126.38;41.83;;;2.90;99.90;;;;;;5112546;28;20054;-72
2022/01/26 02:06:26;;;;;;;112.90;40.78;;;3.30;99.90;;;;;;5112662;28;20051;-72
2022/01/26 02:08:53;;;;;;;123.10;43.83;;;2.70;99.90;;;;;;5112339;28;20050;-72
2022/01/26 02:11:18;;;;;;;115.95;42.67;;;2.20;99.90;;;;;;5129321;27;20039;-72
2022/01/26 02:14:02;;;;;;;116.40;41.33;;;;;;;;;;5111946;28;20453;-72
2022/01/26 02:16:44;;;;;;;132.90;46.25;;;2.60;99.90;;;;;;5094831;28;20074;-72
2022/01/26 02:19:41;;;;;;;115.15;39.08;;;3.10;99.90;;;;;;5111942;28;20051;-72
2022/01/26 02:52:48;;;;;;;120.30;40.45;;;2.90;99.90;;;;;;5111262;28;20043;-72
2022/01/26 02:57:53;;;;;;;125.47;45.13;;;2.70;99.90;;;;;;5111153;28;20128;-72
2022/01/26 03:00:40;;;;;;;125.38;39.67;;;;;;;;;;5111404;28;20078;-72
2022/01/26 03:03:17;;;;;;;124.75;44.13;;;;;;;;;;5111095;28;20052;-72
2022/01/26 03:05:53;;;;;;;132.90;43.10;;;2.80;99.90;;;;;;5111360;28;20047;-72
2022/01/26 03:08:29;;;;;;;125.88;40.65;;;2.80;99.90;;;;;;5111146;28;20126;-72
2022/01/26 03:10:58;;;;;;;112.70;39.08;;;2.90;99.90;;;;;;5093958;28;20082;-71
2022/01/26 03:13:29;;;;;;;114.80;41.60;;;2.70;99.90;;;;;;5111079;28;20094;-72
2022/01/26 03:16:01;;;;;;;119.55;38.63;;;2.90;99.90;;;;;;5110544;28;20117;-71
2022/01/26 03:18:38;;;;;;;127.05;40.22;;;;;;;;;;5111008;28;20524;-71
2022/01/26 03:21:18;;;;;;;125.05;40.17;;;2.70;99.90;;;;;;5111401;28;20083;-72
2022/01/26 03:32:45;;;;;;;112.85;36.55;;;;;;;;;;5052462;28;20058;-72
2022/01/26 03:34:58;;;;;;;119.18;36.72;;;2.60;99.90;;;;;;5051858;28;20048;-72
2022/01/26 03:37:30;;;;;;;118.30;39.20;;;2.50;99.90;;;;;;5051837;28;20053;-72
2022/01/26 03:39:56;;;;;;;117.68;37.72;;;2.20;99.90;;;;;;5051754;28;20123;-72
2022/01/26 03:42:40;;;;;;;114.68;35.53;;;2.70;99.90;;;;;;5051947;28;20048;-72
2022/01/26 03:45:07;;;;;;;120.53;36.75;;;;;;;;;;5035316;28;20068;-72
2022/01/26 03:47:32;;;;;;;113.82;36.30;;;3.40;99.90;;;;;;5051909;28;20678;-72
2022/01/26 03:49:58;;;;;;;108.05;34.25;;;2.60;99.90;;;;;;5051369;28;20194;-72
2022/01/26 03:52:24;;;;;;;112.97;37.35;;;;;;;;;;5068285;28;20079;-72
2022/01/26 03:54:50;;;;;;;103.80;33.88;;;2.60;99.90;;;;;;5052145;28;20116;-72
2022/01/26 03:57:15;;;;;;;105.45;34.47;;;2.70;99.90;;;;;;5071547;28;20513;-72
2022/01/26 03:59:41;;;;;;;105.60;34.70;;;2.70;99.90;;;;;;5127412;27;20031;-72
2022/01/26 04:02:07;;;;;;;109.50;35.92;;;;;;;;;;5093573;28;20039;-72
2022/01/26 04:04:41;;;;;;;107.60;35.58;;;2.60;99.90;;;;;;5110102;28;20333;-72
2022/01/26 04:07:06;;;;;;;109.15;35.25;;;2.10;99.90;;;;;;5110002;28;20043;-71
2022/01/26 04:09:32;;;;;;;109.65;37.60;;;2.70;99.90;;;;;;5110154;28;20043;-72
2022/01/26 04:11:59;;;;;;;113.22;34.95;;;2.60;99.90;;;;;;5127180;27;20046;-72
2022/01/26 04:14:29;;;;;;;119.50;36.60;;;;;;;;;;5110132;28;20515;-72
2022/01/26 04:16:55;;;;;;;112.13;36.05;;;;;;;;;;5110248;28;20055;-72
2022/01/26 04:19:22;;;;;;;114.20;34.78;;;2.40;99.90;;;;;;5109907;28;20039;-72
2022/01/26 04:24:37;;;;;;;109.93;35.15;;;2.60;99.90;;;;;;5109604;28;20054;-72
2022/01/26 04:27:34;;;;;;;116.45;35.22;;;2.50;99.90;;;;;;5109607;28;20047;-72
2022/01/26 04:29:50;;;;;;;122.65;36.75;;;;;;;;;;5109188;28;20055;-72
2022/01/26 04:32:17;;;;;;;122.93;37.15;;;2.30;99.90;;;;;;5109717;28;20043;-72
2022/01/26 04:34:48;;;;;;;121.15;36.53;;;1.50;99.90;;;;;;5109666;28;20055;-72
2022/01/26 04:37:49;;;;;;;108.82;33.15;;;2.30;99.90;;;;;;5109905;28;20051;-72
2022/01/26 04:40:06;;;;;;;117.00;34.10;;;1.80;99.90;;;;;;5107758;28;20047;-72
2022/01/26 04:42:49;;;;;;;118.93;33.40;;;;;;;;;;5109394;28;20566;-72
2022/01/26 04:45:15;;;;;;;110.10;34.67;;;;;;;;;;5092677;28;20399;-72
2022/01/26 04:47:41;;;;;;;113.32;33.05;;;2.00;99.90;;;;;;5092842;28;20488;-72
2022/01/26 04:50:16;;;;;;;114.22;34.00;;;2.30;99.90;;;;;;5109272;28;20043;-72
2022/01/26 04:52:45;;;;;;;109.47;31.92;;;;;;;;;;5109551;28;20114;-72
2022/01/26 04:55:11;;;;;;;114.03;33.92;;;2.30;99.90;;;;;;5109766;28;20043;-72
2022/01/26 04:57:38;;;;;;;109.13;32.78;;;;;;;;;;5110841;28;20055;-72
2022/01/26 05:00:07;;;;;;;107.38;31.80;;;2.10;99.90;;;;;;5109730;28;20385;-72
2022/01/26 05:02:33;;;;;;;110.95;32.17;;;2.30;99.90;;;;;;5110509;28;20055;-72
2022/01/26 05:05:00;;;;;;;115.15;33.42;;;;;;;;;;5109299;28;20048;-72
2022/01/26 05:07:28;;;;;;;108.53;33.90;;;2.20;99.90;;;;;;5108931;28;20130;-72
2022/01/26 05:09:54;;;;;;;108.90;32.13;;;;;;;;;;5109389;28;20101;-72
2022/01/26 05:12:20;;;;;;;103.90;32.60;;;2.20;99.90;;;;;;5109297;28;20096;-72
2022/01/26 05:14:48;;;;;;;110.97;31.42;;;;;;;;;;5126476;27;20444;-72
2022/01/26 05:17:15;;;;;;;107.35;33.35;;;2.40;99.90;;;;;;5092782;28;20086;-72
2022/01/26 05:19:41;;;;;;;105.32;32.95;;;2.30;99.90;;;;;;5114135;28;20086;-71
2022/01/26 05:22:07;;;;;;;104.22;32.13;;;1.70;99.90;;;;;;5113689;28;20053;-71
2022/01/26 05:24:33;;;;;;;106.05;32.33;;;2.20;99.90;;;;;;5114165;28;20051;-72
2022/01/26 05:26:58;;;;;;;112.40;33.00;;;2.20;99.90;;;;;;5113410;28;20035;-72
2022/01/26 05:29:24;;;;;;;108.15;33.08;;;;;;;;;;5113400;28;20046;-72
2022/01/26 05:31:54;;;;;;;112.28;32.47;;;;;;;;;;5114403;28;20050;-72
2022/01/26 05:34:20;;;;;;;112.07;32.72;;;2.20;99.90;;;;;;5113043;28;20051;-72
2022/01/26 05:36:46;;;;;;;107.35;33.65;;;;;;;;;;5112908;28;20134;-72
2022/01/26 05:39:12;;;;;;;102.05;32.00;;;;;;;;;;5112964;28;20051;-72
2022/01/26 05:41:39;;;;;;;110.53;32.45;;;1.90;99.90;;;;;;5095882;28;20047;-72
2022/01/26 05:44:07;;;;;;;102.32;30.85;;;2.30;99.90;;;;;;5112637;28;20055;-72
2022/01/26 05:46:39;;;;;;;106.28;32.45;;;;;;;;;;5095683;28;20043;-71
2022/01/26 05:49:05;;;;;;;101.20;30.65;;;2.30;99.90;;;;;;5113128;28;20032;-71
2022/01/26 05:51:33;;;;;;;101.93;30.90;;;;;;;;;;5112534;28;20540;-71
2022/01/26 05:53:59;;;;;;;99.53;30.05;;;2.00;99.90;;;;;;5109063;27;20043;-71
2022/01/26 05:56:25;;;;;;;101.75;30.77;;;2.20;99.90;;;;;;5112405;28;20051;-71
2022/01/26 05:58:53;;;;;;;97.20;28.73;;;2.10;99.90;;;;;;5112520;28;20402;-71
2022/01/26 06:01:20;;;;;;;98.50;30.10;;;2.20;99.90;;;;;;5112954;28;20039;-71
2022/01/26 06:03:46;;;;;;;94.25;29.25;;;2.00;99.90;;;;;;5112683;28;20075;-71
2022/01/26 06:06:11;;;;;;;106.68;30.45;;;2.20;99.90;;;;;;5112283;28;20067;-71
2022/01/26 06:08:37;;;;;;;98.22;29.98;;;2.30;99.90;;;;;;5111941;28;20044;-71
2022/01/26 06:11:08;;;;;;;95.90;30.58;;;2.50;99.90;;;;;;5112037;28;20051;-71
2022/01/26 06:13:35;;;;;;;97.80;29.63;;;2.40;99.90;;;;;;5095492;28;20197;-71
2022/01/26 06:16:00;;;;;;;95.32;29.77;;;2.10;99.90;;;;;;5112364;28;20056;-71
2022/01/26 06:18:26;;;;;;;102.20;28.83;;;2.50;99.90;;;;;;5111187;28;20572;-71
2022/01/26 06:20:52;;;;;;;104.95;30.42;;;;;;;;;;5111687;28;20040;-72
2022/01/26 06:23:24;;;;;;;100.95;29.80;;;;;;;;;;5094229;28;20087;-72
2022/01/26 06:25:52;;;;;;;106.30;33.55;;;1.10;99.90;;;;;;5114930;27;20119;-72
2022/01/26 06:28:23;;;;;;;104.30;31.05;;;2.30;99.90;;;;;;5111966;27;20487;-72
2022/01/26 06:30:52;;;;;;;93.47;29.77;;;2.40;99.90;;;;;;5094364;28;20391;-72
2022/01/26 06:33:18;;;;;;;89.65;28.33;;;2.20;99.90;;;;;;5109127;28;20052;-72
2022/01/26 06:35:44;;;;;;;95.07;29.10;;;2.30;99.90;;;;;;5094017;28;20672;-72
2022/01/26 06:38:10;;;;;;;93.30;27.85;;;;;;;;;;5110976;28;20050;-72
2022/01/26 06:40:36;;;;;;;89.20;27.55;;;2.20;99.90;;;;;;5111872;28;20047;-72
2022/01/26 06:43:08;;;;;;;87.15;28.00;;;;;;;;;;5110668;28;20035;-72
2022/01/26 06:45:39;;;;;;;85.72;27.70;;;;;;;;;;5112068;28;20050;-72
2022/01/26 06:48:43;;;;;;;94.38;27.05;;;;;;;;;;5112090;28;20188;-72
2022/01/26 06:51:11;;;;;;;82.38;25.50;;;3.40;99.90;;;;;;5109371;28;20479;-71
2022/01/26 06:53:37;;;;;;;77.07;25.58;;;2.30;99.90;;;;;;5111386;27;20058;-71
2022/01/26 06:56:03;;;;;;;85.40;26.60;;;2.10;99.90;;;;;;5111665;28;20039;-71
2022/01/26 06:58:29;;;;;;;79.55;26.50;;;;;;;;;;5109021;28;20077;-71
2022/01/26 07:00:55;;;;;;;85.15;26.92;;;;;;;;;;5110094;28;20044;-71
2022/01/26 07:03:20;;;;;;;82.20;26.80;;;2.00;99.90;;;;;;5111737;28;20047;-71
2022/01/26 07:05:46;;;;;;;79.32;24.92;;;1.60;99.90;;;;;;5093143;28;20114;-71
2022/01/26 07:08:12;;;;;;;79.30;24.38;;;2.50;99.90;;;;;;5110253;28;20047;-71
2022/01/26 07:10:37;;;;;;;83.20;26.05;;;1.20;99.90;;;;;;5110059;28;20047;-71
2022/01/26 07:13:03;;;;;;;82.75;24.88;;;;;;;;;;5123852;27;20081;-71
2022/01/26 07:23:45;;;;;;;76.88;25.05;;;1.70;99.90;;;;;;5111077;28;20403;-71
2022/01/26 07:26:11;;;;;;;76.22;23.02;;;2.10;99.90;;;;;;5109990;28;20051;-71
2022/01/26 07:28:39;;;;;;;73.45;24.38;;;;;;;;;;5118158;27;20142;-71
2022/01/26 07:31:06;;;;;;;69.00;23.88;;;2.90;99.90;;;;;;5110173;28;20478;-71
2022/01/26 07:33:32;;;;;;;72.40;24.10;;;2.90;99.90;;;;;;5107634;28;20070;-71
2022/01/26 07:35:59;;;;;;;73.28;25.10;;;;;;;;;;5106368;28;20083;-71
2022/01/26 07:38:26;;;;;;;77.70;23.73;;;;;;;;;;5108511;28;20043;-71
2022/01/26 07:40:53;;;;;;;74.30;24.40;;;1.60;99.90;;;;;;5092635;28;20035;-71
2022/01/26 07:43:19;;;;;;;79.47;24.95;;;;;;;;;;5103406;27;20063;-71
2022/01/26 07:45:45;;;;;;;76.18;26.90;;;;;;;;;;5119335;27;20151;-71
2022/01/26 07:48:11;;;;;;;74.53;25.15;;;2.90;99.90;;;;;;5101464;27;20502;-71
2022/01/26 07:50:37;;;;;;;83.97;28.45;;;;;;;;;;5112943;27;20112;-71
2022/01/26 07:53:04;;;;;;;80.63;29.50;;;3.00;99.90;;;;;;5109403;27;20474;-71
2022/01/26 07:55:31;;;;;;;79.60;26.77;;;;;;;;;;5112652;27;20047;-71
2022/01/26 07:57:57;;;;;;;85.28;29.48;;;;;;;;;;5108073;28;20148;-71
2022/01/26 08:00:24;;;;;;;85.60;29.70;;;2.60;99.90;;;;;;5109150;27;20055;-71
2022/01/26 08:02:50;;;;;;;94.65;30.73;;;2.60;99.90;;;;;;5091288;28;20055;-71
2022/01/26 08:05:17;;;;;;;95.18;31.58;;;2.50;99.90;;;;;;5107784;27;20047;-71
2022/01/26 08:07:43;;;;;;;94.60;30.35;;;2.60;99.90;;;;;;5107880;28;20039;-72
2022/01/26 08:10:10;;;;;;;103.07;35.90;;;2.60;99.90;;;;;;5109137;27;20055;-72
2022/01/26 08:12:40;;;;;;;99.78;34.28;;;2.90;99.90;;;;;;5107294;28;20044;-71
2022/01/26 08:15:07;;;;;;;110.50;37.22;;;2.30;99.90;;;;;;5107655;28;20058;-71
2022/01/26 08:17:34;;;;;;;106.05;35.30;;;2.40;99.90;;;;;;5107312;28;20152;-72
2022/01/26 08:20:04;;;;;;;103.35;36.30;;;2.50;99.90;;;;;;5108481;27;20040;-71
2022/01/26 08:22:30;;;;;;;110.70;37.00;;;;;;;;;;5112345;28;20044;-71
2022/01/26 08:24:56;;;;;;;109.45;38.72;;;2.70;99.90;;;;;;5107948;28;20059;-71
2022/01/26 08:27:25;;;;;;;118.07;42.33;;;;;;;;;;5107999;28;20126;-71
2022/01/26 08:29:55;;;;;;;114.65;41.13;;;;;;;;;;5106650;27;20116;-71
2022/01/26 08:32:22;;;;;;;120.28;39.85;;;1.80;99.90;;;;;;5104351;28;20075;-72
2022/01/26 08:34:48;;;;;;;110.43;38.70;;;;;;;;;;5106550;27;20126;-72
2022/01/26 08:37:14;;;;;;;120.22;41.83;;;;;;;;;;5106845;28;20368;-72
2022/01/26 08:39:40;;;;;;;126.93;41.08;;;2.60;99.90;;;;;;5090038;28;20047;-72
2022/01/26 08:42:07;;;;;;;123.40;44.50;;;2.70;99.90;;;;;;5106941;27;20115;-72
2022/01/26 08:44:36;;;;;;;126.85;42.80;;;2.70;99.90;;;;;;5107055;28;20407;-72
2022/01/26 08:47:04;;;;;;;125.93;43.70;;;2.60;99.90;;;;;;5106294;28;20039;-72
2022/01/26 08:49:31;;;;;;;125.80;42.85;;;2.80;99.90;;;;;;5106696;28;20054;-72
2022/01/26 08:51:57;;;;;;;130.05;46.65;;;;;;;;;;5087802;28;20116;-72
2022/01/26 08:54:22;;;;;;;132.05;48.22;;;2.80;99.90;;;;;;5105832;28;20043;-72
2022/01/26 08:56:52;;;;;;;129.15;44.30;;;1.80;99.90;;;;;;5105774;27;20051;-72
2022/01/26 08:59:19;;;;;;;132.10;45.22;;;2.70;99.90;;;;;;5105476;28;20047;-72
2022/01/26 09:01:48;;;;;;;134.35;46.75;;;;;;;;;;5106451;27;20056;-72
2022/01/26 09:04:15;;;;;;;161.13;51.45;;;1.80;99.90;;;;;;5106039;28;20160;-72
2022/01/26 09:06:58;;;;;;;141.57;49.55;;;2.80;99.90;;;;;;5106248;27;20057;-72
2022/01/26 09:09:27;;;;;;;147.32;49.05;;;2.80;99.90;;;;;;5106358;28;20055;-72
2022/01/26 09:11:55;;;;;;;143.95;51.83;;;2.80;99.90;;;;;;5106312;28;20491;-73
2022/01/26 09:14:22;;;;;;;143.40;50.25;;;2.80;99.90;;;;;;5107546;28;20118;-72
2022/01/26 09:17:11;;;;;;;149.07;51.53;;;2.90;99.90;;;;;;5107560;27;20492;-72
2022/01/26 09:19:37;;;;;;;155.88;49.67;;;2.60;99.90;;;;;;5090480;28;20054;-72
2022/01/26 09:22:06;;;;;;;152.15;53.47;;;2.80;99.90;;;;;;5108160;27;20453;-71
2022/01/26 09:24:34;;;;;;;152.13;53.25;;;2.80;99.90;;;;;;5108526;28;20062;-71
2022/01/26 09:27:00;;;;;;;154.70;56.58;;;3.10;99.90;;;;;;5107617;28;20124;-71
2022/01/26 09:29:26;;;;;;;159.63;60.65;;;3.00;99.90;;;;;;5084866;28;20040;-71
2022/01/26 09:31:54;;;;;;;162.30;54.22;;;;;;;;;;5088807;28;20143;-72
2022/01/26 09:34:23;;;;;;;160.15;59.13;;;3.20;99.90;;;;;;5106708;28;20146;-71
2022/01/26 09:36:49;;;;;;;171.52;59.15;;;3.10;99.90;;;;;;5106683;27;20055;-71
2022/01/26 09:39:18;;;;;;;178.35;65.22;;;3.20;99.90;;;;;;5105807;28;20047;-71
2022/01/26 09:41:45;;;;;;;172.02;57.80;;;3.10;99.90;;;;;;5107378;27;20055;-71
2022/01/26 09:44:13;;;;;;;170.95;61.13;;;2.80;99.90;;;;;;5106129;28;20115;-71
2022/01/26 09:46:40;;;;;;;178.38;64.28;;;;;;;;;;5108685;28;20058;-70
2022/01/26 09:49:06;;;;;;;177.02;64.10;;;3.90;99.90;;;;;;5107946;27;20062;-72
2022/01/26 09:51:39;;;;;;;189.77;65.43;;;3.10;99.90;;;;;;5107218;28;20124;-72
2022/01/26 09:54:13;;;;;;;181.93;67.57;;;3.10;99.90;;;;;;5089879;28;20052;-72
2022/01/26 09:56:39;;;;;;;180.55;66.15;;;3.00;99.90;;;;;;5108421;28;20039;-72
2022/01/26 09:59:06;;;;;;;188.65;63.70;;;3.60;99.90;;;;;;5105614;27;20050;-72
2022/01/26 10:01:50;;;;;;;193.95;68.22;;;3.10;99.90;;;;;;5106413;28;20089;-72
2022/01/26 10:04:28;;;;;;;181.82;61.42;;;2.40;99.90;;;;;;5106811;27;20047;-72
2022/01/26 10:07:08;;;;;;;184.68;63.78;;;3.30;99.90;;;;;;5110721;28;20421;-72
2022/01/26 10:17:39;;;;;;;191.52;68.65;;;;;;;;;;5107740;28;20040;-72
2022/01/26 10:20:06;;;;;;;182.20;64.80;;;3.20;99.90;;;;;;5109514;28;20051;-72
2022/01/26 10:22:35;;;;;;;193.48;67.75;;;3.20;99.90;;;;;;5098784;28;20079;-72
2022/01/26 10:25:12;;;;;;;193.18;71.00;;;3.30;99.90;;;;;;5110869;28;20039;-72
2022/01/26 10:27:40;;;;;;;196.90;66.32;;;3.50;99.90;;;;;;5107979;28;20050;-72
2022/01/26 10:30:08;;;;;;;203.98;76.82;;;3.50;99.90;;;;;;5092061;28;20108;-72
2022/01/26 10:32:35;;;;;;;194.05;67.43;;;3.30;99.90;;;;;;5109921;28;20083;-71
2022/01/26 10:35:04;;;;;;;194.05;69.63;;;3.30;99.90;;;;;;5106797;28;20082;-71
2022/01/26 10:37:30;;;;;;;203.35;72.20;;;;;;;;;;5109480;28;20382;-72
2022/01/26 10:40:21;;;;;;;202.32;71.43;;;3.40;99.90;;;;;;5109332;28;20083;-71
2022/01/26 10:42:56;;;;;;;196.70;69.43;;;3.00;99.90;;;;;;5125811;27;20040;-71
2022/01/26 10:46:14;;;;;;;194.38;72.97;;;3.30;99.90;;;;;;5117548;27;20062;-71
2022/01/26 10:53:40;;;;;;;181.20;61.58;;;2.80;99.90;;;;;;5110026;28;20065;-71
2022/01/26 10:56:08;;;;;;;180.43;65.85;;;3.40;99.90;;;;;;5092227;28;20052;-71
2022/01/26 10:58:34;;;;;;;196.52;74.50;;;;;;;;;;5107246;28;20365;-71
2022/01/26 11:01:00;;;;;;;189.80;72.70;;;;;;;;;;5109524;27;20055;-71
2022/01/26 11:03:26;;;;;;;192.05;74.43;;;;;;;;;;5109300;27;20396;-71
2022/01/26 11:05:53;;;;;;;183.18;71.38;;;3.60;99.90;;;;;;5109060;28;20048;-71
2022/01/26 11:08:21;;;;;;;185.60;64.60;;;3.10;99.90;;;;;;5108934;28;20234;-71
2022/01/26 11:10:48;;;;;;;177.10;62.60;;;3.80;99.90;;;;;;5110687;27;20043;-71
2022/01/26 11:13:30;;;;;;;172.52;67.93;;;3.80;99.90;;;;;;5108626;28;20043;-71
2022/01/26 11:16:10;;;;;;;166.18;67.18;;;3.80;99.90;;;;;;5091019;28;20115;-71
2022/01/26 11:18:58;;;;;;;161.25;64.90;;;3.70;99.90;;;;;;5109548;28;20051;-71
2022/01/26 11:21:25;;;;;;;161.18;60.70;;;3.60;99.90;;;;;;5108970;27;20052;-71
2022/01/26 11:23:52;;;;;;;151.52;64.43;;;;;;;;;;5108902;28;20054;-71
2022/01/26 11:26:25;;;;;;;162.07;63.38;;;3.60;99.90;;;;;;5107305;27;20539;-71
2022/01/26 11:28:51;;;;;;;158.02;64.78;;;;;;;;;;5107148;28;20066;-71
2022/01/26 11:31:18;;;;;;;151.93;60.80;;;3.50;99.90;;;;;;5108265;27;20044;-71
2022/01/26 11:33:48;;;;;;;153.73;62.67;;;4.30;99.90;;;;;;5108948;28;20043;-71
2022/01/26 11:36:17;;;;;;;143.35;60.25;;;4.20;99.90;;;;;;5108503;28;20055;-71
2022/01/26 11:47:19;;;;;;;138.48;59.22;;;3.90;99.90;;;;;;5047115;28;20087;-71
2022/01/26 11:49:46;;;;;;;133.00;57.22;;;3.70;99.90;;;;;;5038115;28;20070;-71
2022/01/26 11:52:24;;;;;;;141.18;57.90;;;4.10;99.90;;;;;;5049435;28;20048;-71
2022/01/26 11:54:56;;;;;;;132.68;57.78;;;4.00;99.90;;;;;;5045752;28;20151;-71
2022/01/26 11:57:42;;;;;;;140.93;57.72;;;3.90;99.90;;;;;;5050732;28;20134;-71
2022/01/26 12:00:12;;;;;;;;;;;3.90;99.90;;;;;;5063975;28;20044;-71
2022/01/26 12:05:15;;;;;;;123.88;55.40;;;3.70;99.90;;;;;;5059613;28;20040;-71
2022/01/26 12:07:52;;;;;;;138.10;57.85;;;4.10;99.90;;;;;;5049391;28;20131;-72
2022/01/26 12:10:28;;;;;;;127.00;54.80;;;4.10;99.90;;;;;;5054881;28;20099;-71
2022/01/26 12:13:02;;;;;;;129.85;55.35;;;4.00;99.90;;;;;;5044991;28;20127;-71
2022/01/26 12:15:32;;;;;;;129.90;54.75;;;4.10;99.90;;;;;;5044459;28;20052;-71
2022/01/26 12:18:15;;;;;;;129.52;55.78;;;;;;;;;;5064060;28;20047;-71
2022/01/26 12:45:17;;;;;;;118.60;48.60;;;4.40;99.90;;;;;;5109040;28;20503;-72
2022/01/26 12:47:43;;;;;;;109.25;47.35;;;4.80;99.90;;;;;;5108329;28;20047;-72
2022/01/26 12:50:09;;;;;;;107.43;47.83;;;4.30;99.90;;;;;;5109141;28;20387;-72
2022/01/26 12:52:36;;;;;;;123.18;50.33;;;4.40;99.90;;;;;;5121923;27;20059;-72
2022/01/26 12:55:03;;;;;;;109.80;48.83;;;4.40;99.90;;;;;;5107931;28;20124;-72
2022/01/26 12:57:28;;;;;;;106.47;46.72;;;4.30;99.90;;;;;;5108989;28;20049;-72
2022/01/26 13:00:02;;;;;;;110.35;47.20;;;4.40;99.90;;;;;;5107762;28;20043;-72
2022/01/26 13:02:28;;;;;;;106.97;47.58;;;;;;;;;;5106086;28;20122;-72
2022/01/26 13:05:02;;;;;;;110.93;46.95;;;4.20;99.90;;;;;;5107369;28;20483;-72
2022/01/26 13:07:28;;;;;;;101.78;46.00;;;;;;;;;;5106823;28;20487;-72
2022/01/26 13:09:54;;;;;;;100.38;44.03;;;4.60;99.90;;;;;;5109185;28;20375;-72
2022/01/26 13:12:30;;;;;;;100.05;43.80;;;4.40;99.90;;;;;;5110301;28;20066;-72
2022/01/26 13:15:26;;;;;;;93.97;43.53;;;4.50;99.90;;;;;;5108920;28;20055;-72
2022/01/26 13:18:05;;;;;;;98.95;44.17;;;4.40;99.90;;;;;;5107880;28;20518;-72
2022/01/26 13:29:20;;;;;;;97.90;43.05;;;;;;;;;;5009860;28;20104;-72
2022/01/26 13:34:47;;;;;;;107.97;46.10;;;4.50;99.90;;;;;;5025601;28;20053;-72
2022/01/26 13:40:05;;;;;;;109.10;45.45;;;4.30;99.90;;;;;;5009984;28;20053;-72
2022/01/26 13:43:12;;;;;;;106.70;45.67;;;;;;;;;;5012667;28;20413;-71
2022/01/26 13:53:49;;;;;;;116.30;47.92;;;;;;;;;;4916818;29;20051;-71
2022/01/26 13:59:23;;;;;;;110.07;48.75;;;;;;;;;;4912396;28;20553;-73
2022/01/26 14:01:50;;;;;;;117.15;48.85;;;4.20;99.90;;;;;;4998069;28;20093;-72
2022/01/26 14:04:17;;;;;;;109.97;47.63;;;4.80;99.90;;;;;;5010027;28;20529;-72
2022/01/26 14:06:47;;;;;;;114.15;48.45;;;4.40;99.90;;;;;;4990842;28;20062;-72
2022/01/26 14:09:13;;;;;;;103.97;45.92;;;4.60;99.90;;;;;;5002684;28;20096;-72
2022/01/26 14:11:39;;;;;;;110.03;47.70;;;4.40;99.90;;;;;;4977041;28;20042;-72
2022/01/26 14:14:04;;;;;;;116.78;48.53;;;4.60;99.90;;;;;;4997765;28;20413;-73
2022/01/26 14:16:39;;;;;;;120.28;47.97;;;4.40;99.90;;;;;;4973508;28;20418;-73
2022/01/26 14:27:20;;;;;;;114.13;47.67;;;;;;;;;;5110707;28;20553;-73
2022/01/26 14:30:13;;;;;;;112.93;48.72;;;;;;;;;;5111448;28;20402;-73
2022/01/26 14:33:03;;;;;;;106.78;46.10;;;;;;;;;;5109339;28;20043;-73
2022/01/26 15:40:51;;;;;;;100.82;42.20;;;4.50;99.90;;;;;;5108026;28;20511;-71
2022/01/26 15:48:52;;;;;;;101.50;42.60;;;5.30;99.90;;;;;;5110644;28;20127;-71
2022/01/26 16:07:41;;;;;;;100.72;42.67;;;;;;;;;;5109877;28;20048;-71
2022/01/26 16:16:28;;;;;;;86.05;39.33;;;5.10;99.90;;;;;;5110126;28;20051;-71
2022/01/26 16:21:22;;;;;;;95.80;41.53;;;4.50;99.90;;;;;;5111400;28;20047;-72
2022/01/26 16:38:00;;;;;;;93.43;40.30;;;4.90;99.90;;;;;;5116032;27;20047;-72
2022/01/26 18:16:02;;;;;;;100.70;45.53;;;4.80;99.90;;;;;;5097927;28;20079;-71
2022/01/26 18:26:41;;;;;;;99.28;43.17;;;;;;;;;;5107878;28;20050;-72
2022/01/26 18:50:01;;;;;;;97.40;44.60;;;4.70;99.90;;;;;;5110319;27;20047;-72
2022/01/26 18:52:27;;;;;;;94.43;43.75;;;;;;;;;;5093996;28;20035;-72
2022/01/26 18:54:52;;;;;;;93.30;42.88;;;4.90;99.90;;;;;;5111891;28;20051;-72
2022/01/26 18:57:18;;;;;;;99.97;44.08;;;4.80;99.90;;;;;;5109823;28;20490;-72
2022/01/26 18:59:45;;;;;;;99.93;44.25;;;5.00;99.90;;;;;;5110071;28;20051;-72
2022/01/26 19:02:12;;;;;;;100.00;44.83;;;4.80;99.90;;;;;;5111500;27;20055;-72
2022/01/26 19:04:44;;;;;;;94.05;44.55;;;5.30;99.90;;;;;;5111094;28;20047;-72
2022/01/26 19:07:10;;;;;;;99.63;44.67;;;;;;;;;;5111926;27;20112;-72
2022/01/26 19:09:41;;;;;;;97.95;43.85;;;;;;;;;;5111674;28;20083;-72
2022/01/26 19:12:10;;;;;;;104.82;44.92;;;4.80;99.90;;;;;;5110196;28;20051;-72
2022/01/26 19:14:39;;;;;;;100.57;45.13;;;;;;;;;;5110288;28;20044;-73
2022/01/26 19:17:22;;;;;;;101.60;45.75;;;5.10;99.90;;;;;;5109725;28;20081;-72
2022/01/26 19:20:18;;;;;;;97.30;45.08;;;5.00;99.90;;;;;;5109901;28;20059;-72
2022/01/26 19:23:02;;;;;;;96.80;45.00;;;4.70;99.90;;;;;;5110851;27;20048;-72
2022/01/26 19:25:33;;;;;;;95.75;44.40;;;4.80;99.90;;;;;;5110077;28;20047;-72
2022/01/26 19:28:11;;;;;;;101.20;46.83;;;4.80;99.90;;;;;;5110007;28;20411;-72
2022/01/26 19:44:33;;;;;;;95.75;45.22;;;;;;;;;;5011067;28;20115;-72
2022/01/26 19:52:12;;;;;;;98.10;45.08;;;5.00;99.90;;;;;;5007840;28;20061;-72
2022/01/26 19:54:48;;;;;;;92.07;46.13;;;4.70;99.90;;;;;;4991285;28;20054;-72
2022/01/26 19:57:15;;;;;;;98.70;46.67;;;4.90;99.90;;;;;;4991422;28;20050;-72
2022/01/26 19:59:41;;;;;;;100.50;48.33;;;;;;;;;;5007798;28;20049;-72
2022/01/26 20:02:06;;;;;;;94.68;46.35;;;4.90;99.90;;;;;;4991530;28;20506;-72